Tisbury, Massachusetts
Current Conditions -  °F | °C
As of 8:53 PM on Friday 24 Oct 2014 (Local Time) from KMVY Reporting Station
Overcast Overcast  
Wind Chill: 52°   Ceiling: 2900
Heat Index: 52°   Visibility: 10mi
Dew Point: 44°   Wind: 12mph
Humidity: 74%   Direction: 320°NW
Pressure: 29.72"   Gusts: NA
Location:  41.4768°N, 70.6027°W
Report Text: KMVY 250053Z 32010KT 10SM BKN029 OVC043 11/07 A2972 RMK AO2 SLP064 T01110067
Loading
Personal Weather Stations






























Interactive Weather Map
Tropical Storm Tracking
New forecast layout! Learn more

10-Day Weather Forecast

Advertisements
Track Severe Weather on mobile